createdAt,value
2018-05-13T02:57:50.373Z,992.3
2018-05-13T02:58:21.887Z,992.3
2018-05-13T02:58:43.319Z,992.3
2018-05-13T02:59:04.760Z,992.3
2018-05-13T04:03:59.479Z,992.4
2018-05-13T04:04:46.176Z,992.4
2018-05-13T04:05:07.283Z,992.3
2018-05-13T04:05:28.180Z,992.4
2018-05-13T04:05:49.155Z,992.3
2018-05-13T04:06:10.957Z,992.4
2018-05-13T04:06:32.130Z,992.4
2018-05-13T04:06:54.401Z,992.4
2018-05-13T04:07:15.767Z,992.4
2018-05-13T04:12:40.665Z,992.4
2018-05-13T04:13:13.885Z,992.4
2018-05-13T04:14:52.316Z,992.4
2018-05-13T04:16:32.791Z,992.4
2018-05-13T04:16:55.233Z,992.4
2018-05-13T04:18:27.000Z,992.4
2018-05-13T04:19:04.279Z,992.4
2018-05-13T04:20:13.722Z,992.4
2018-05-13T04:20:52.205Z,992.4
2018-05-13T04:22:57.316Z,992.4
2018-05-13T04:25:08.769Z,992.4
2018-05-13T04:29:28.765Z,992.4
2018-05-13T04:33:12.332Z,992.4
2018-05-13T04:33:41.201Z,992.4
2018-05-13T04:35:57.345Z,992.4
2018-05-13T04:36:53.016Z,992.4
2018-05-13T04:38:26.882Z,992.4
2018-05-13T04:39:24.251Z,992.3
2018-05-13T04:40:23.041Z,992.3
2018-05-13T04:42:09.359Z,992.4
2018-05-13T04:43:01.738Z,992.4
2018-05-13T04:47:32.227Z,992.4
2018-05-13T04:48:41.297Z,992.4
2018-05-13T04:53:18.623Z,992.5
2018-05-13T04:54:08.979Z,992.4
2018-05-13T04:55:10.468Z,992.4
2018-05-13T04:56:00.204Z,992.4
2018-05-13T04:56:24.404Z,992.4
2018-05-13T04:56:45.987Z,992.4
2018-05-13T04:59:11.247Z,992.4
2018-05-13T04:59:40.075Z,992.4
2018-05-13T05:00:00.771Z,992.4
2018-05-13T05:00:21.754Z,992.4
2018-05-13T05:00:43.069Z,992.4
2018-05-13T05:01:04.204Z,992.4
2018-05-13T05:01:25.025Z,992.4
2018-05-13T05:01:46.050Z,992.3
2018-05-13T05:02:07.346Z,992.4
2018-05-13T05:05:29.139Z,992.4
2018-05-13T05:06:59.882Z,992.4
2018-05-13T05:08:05.035Z,992.4
2018-05-13T05:08:31.460Z,992.3
2018-05-13T05:08:52.992Z,992.4
2018-05-13T05:09:14.307Z,992.4
2018-05-13T05:10:16.968Z,992.4
2018-05-13T05:12:41.564Z,992.4
2018-05-13T05:13:11.857Z,992.4
2018-05-13T05:14:47.145Z,992.4
2018-05-13T05:15:17.626Z,992.4
2018-05-13T05:15:38.331Z,992.4
2018-05-13T05:18:09.880Z,992.4
2018-05-13T05:19:54.065Z,992.4
2018-05-13T05:21:52.328Z,992.4
2018-05-13T05:22:18.531Z,992.4
2018-05-13T05:22:40.202Z,992.5
2018-05-13T05:23:01.176Z,992.4
2018-05-13T05:25:04.909Z,992.4
2018-05-13T05:25:27.635Z,992.4
2018-05-13T05:25:49.510Z,992.4
2018-05-13T05:26:10.466Z,992.4
2018-05-13T05:26:31.557Z,992.4
2018-05-13T05:26:52.473Z,992.4
2018-05-13T05:27:13.662Z,992.4
2018-05-13T05:28:27.438Z,992.4
2018-05-13T05:29:21.700Z,992.4
2018-05-13T05:29:43.168Z,992.3
2018-05-13T05:30:04.149Z,992.4
2018-05-13T05:30:36.030Z,992.3
2018-05-13T05:31:20.920Z,992.4
2018-05-13T05:31:51.384Z,992.3
2018-05-13T05:32:17.645Z,992.4
2018-05-13T05:32:52.402Z,992.3
2018-05-13T05:33:16.031Z,992.3
2018-05-13T05:33:48.378Z,992.3
2018-05-13T05:34:13.331Z,992.3
2018-05-13T05:34:34.175Z,992.3
2018-05-13T05:35:08.868Z,992.4
2018-05-13T05:35:32.799Z,992.4
2018-05-13T05:35:54.824Z,992.3
2018-05-13T05:36:16.073Z,992.3
2018-05-13T05:36:37.027Z,992.3
2018-05-13T05:36:57.989Z,992.4
2018-05-13T05:37:18.926Z,992.3
2018-05-13T05:37:52.740Z,992.3
2018-05-13T05:38:15.429Z,992.3
2018-05-13T05:38:37.375Z,992.3
2018-05-13T05:38:59.565Z,992.3
2018-05-13T05:39:20.468Z,992.3
2018-05-13T05:39:41.451Z,992.3
2018-05-13T05:40:02.504Z,992.3
2018-05-13T05:40:23.561Z,992.3
2018-05-13T05:40:44.607Z,992.4
2018-05-13T05:41:05.826Z,992.3
2018-05-13T05:41:26.682Z,992.3
2018-05-13T05:41:48.061Z,992.3
2018-05-13T05:42:09.067Z,992.4
2018-05-13T05:42:29.954Z,992.4
2018-05-13T05:42:50.746Z,992.4
2018-05-13T05:43:11.491Z,992.3
2018-05-13T05:43:32.773Z,992.4
2018-05-13T05:43:54.751Z,992.4
2018-05-13T05:44:35.138Z,992.4
2018-05-13T05:44:56.083Z,992.4
2018-05-13T05:45:16.874Z,992.4
2018-05-13T05:45:37.946Z,992.4
2018-05-13T05:45:58.886Z,992.4
2018-05-13T05:46:20.064Z,992.4
2018-05-13T05:46:40.911Z,992.4
2018-05-13T05:47:01.593Z,992.4
2018-05-13T05:47:22.686Z,992.4
2018-05-13T05:47:43.515Z,992.3
2018-05-13T05:48:04.620Z,992.4
2018-05-13T05:48:25.480Z,992.4
2018-05-13T05:48:46.908Z,992.4
2018-05-13T05:49:07.668Z,992.3
2018-05-13T05:49:29.026Z,992.4
2018-05-13T05:49:50.505Z,992.4
2018-05-13T05:50:11.286Z,992.4
2018-05-13T05:50:32.845Z,992.4
2018-05-13T05:50:53.452Z,992.4
2018-05-13T05:51:14.861Z,992.3
2018-05-13T05:51:35.616Z,992.3
2018-05-13T05:51:56.505Z,992.3
2018-05-13T05:52:17.308Z,992.4
2018-05-13T05:52:38.100Z,992.3
2018-05-13T05:52:58.792Z,992.3
2018-05-13T05:53:19.719Z,992.4
2018-05-13T05:53:40.521Z,992.4
2018-05-13T05:54:02.183Z,992.4
2018-05-13T05:54:23.125Z,992.3
2018-05-13T05:54:43.923Z,992.3
2018-05-13T05:55:05.007Z,992.3
2018-05-13T05:55:25.683Z,992.3
2018-05-13T05:55:46.616Z,992.3
2018-05-13T05:56:27.110Z,992.3
2018-05-13T05:56:48.099Z,992.3
2018-05-13T05:57:11.157Z,992.3
2018-05-13T05:57:32.822Z,992.3
2018-05-13T05:57:53.691Z,992.3
2018-05-13T05:58:14.663Z,992.3
2018-05-13T05:58:35.716Z,992.3
2018-05-13T05:58:56.699Z,992.2
2018-05-13T05:59:17.645Z,992.2
2018-05-13T05:59:38.954Z,992.3
2018-05-13T06:00:00.061Z,992.3
2018-05-13T06:00:21.335Z,992.3
2018-05-13T06:00:42.328Z,992.3
2018-05-13T06:01:03.348Z,992.3
2018-05-13T06:01:24.881Z,992.3
2018-05-13T06:01:45.897Z,992.3
2018-05-13T06:02:07.060Z,992.3
2018-05-13T06:02:28.826Z,992.3
2018-05-13T06:02:49.521Z,992.3
2018-05-13T06:03:10.627Z,992.3
2018-05-13T06:03:32.290Z,992.3
2018-05-13T06:03:53.819Z,992.3
2018-05-13T06:04:15.116Z,992.3
2018-05-13T06:04:35.859Z,992.3
2018-05-13T06:04:56.639Z,992.3
2018-05-13T06:05:17.864Z,992.3
2018-05-13T06:05:38.724Z,992.3
2018-05-13T06:05:59.578Z,992.3
2018-05-13T06:06:20.613Z,992.3
2018-05-13T06:06:43.278Z,992.3
2018-05-13T06:07:05.324Z,992.3
2018-05-13T06:07:26.510Z,992.3
2018-05-13T06:07:47.900Z,992.3
2018-05-13T06:08:10.216Z,992.3
2018-05-13T06:08:31.679Z,992.3
2018-05-13T06:08:52.624Z,992.3
2018-05-13T06:09:13.472Z,992.3
2018-05-13T06:09:34.404Z,992.3
2018-05-13T06:09:54.945Z,992.3
2018-05-13T06:10:17.198Z,992.3
2018-05-13T06:10:38.605Z,992.3
2018-05-13T06:10:59.754Z,992.3
2018-05-13T06:11:20.519Z,992.3
2018-05-13T06:11:41.566Z,992.3
2018-05-13T06:12:02.589Z,992.3
2018-05-13T06:12:23.701Z,992.3
2018-05-13T06:12:44.561Z,992.3
2018-05-13T06:13:05.929Z,992.3
2018-05-13T06:13:27.062Z,992.3
2018-05-13T06:13:47.956Z,992.3
2018-05-13T06:14:08.658Z,992.3
2018-05-13T06:14:32.805Z,992.3
2018-05-13T06:14:54.973Z,992.3
2018-05-13T06:15:15.916Z,992.3
2018-05-13T06:15:36.826Z,992.3
2018-05-13T06:15:57.706Z,992.3
2018-05-13T06:16:19.173Z,992.3
2018-05-13T06:16:39.862Z,992.3
2018-05-13T06:17:01.099Z,992.3
2018-05-13T06:17:22.047Z,992.3
2018-05-13T06:17:42.817Z,992.3
2018-05-13T06:18:03.758Z,992.3
2018-05-13T06:18:24.948Z,992.3
2018-05-13T06:18:46.077Z,992.3
2018-05-13T06:19:08.652Z,992.3
2018-05-13T06:19:31.306Z,992.3
2018-05-13T06:19:56.323Z,992.3
2018-05-13T06:20:18.332Z,992.3
2018-05-13T06:20:41.267Z,992.3
2018-05-13T06:21:02.351Z,992.3
2018-05-13T06:21:23.212Z,992.3
2018-05-13T06:21:43.936Z,992.3
2018-05-13T06:22:04.717Z,992.3
2018-05-13T06:22:25.632Z,992.2
2018-05-13T06:22:46.430Z,992.2
2018-05-13T06:23:08.219Z,992.3
2018-05-13T06:23:29.102Z,992.3
2018-05-13T06:23:50.518Z,992.2
2018-05-13T06:24:12.302Z,992.2
2018-05-13T06:24:33.243Z,992.2
2018-05-13T06:24:54.349Z,992.2
2018-05-13T06:25:15.131Z,992.2
2018-05-13T06:25:36.821Z,992.2
2018-05-13T06:25:58.307Z,992.2
2018-05-13T06:26:20.891Z,992.2
2018-05-13T06:26:41.802Z,992.2
2018-05-13T06:27:02.987Z,992.2
2018-05-13T06:27:24.306Z,992.2
2018-05-13T06:27:45.245Z,992.2
2018-05-13T06:28:06.157Z,992.2
2018-05-13T06:28:27.390Z,992.2
2018-05-13T06:28:49.574Z,992.2
2018-05-13T06:29:10.814Z,992.2
2018-05-13T06:29:33.680Z,992.2
2018-05-13T06:29:54.910Z,992.2
2018-05-13T06:30:15.765Z,992.2
2018-05-13T06:30:37.035Z,992.2
2018-05-13T06:30:59.883Z,992.2
2018-05-13T06:31:21.160Z,992.2
2018-05-13T06:31:44.258Z,992.2
2018-05-13T06:32:04.899Z,992.2
2018-05-13T06:32:25.769Z,992.2
2018-05-13T06:32:46.710Z,992.2
2018-05-13T06:33:07.517Z,992.2
2018-05-13T06:33:28.412Z,992.2
2018-05-13T06:33:49.980Z,992.2
2018-05-13T06:34:10.906Z,992.2
2018-05-13T06:34:31.597Z,992.2
2018-05-13T06:34:52.880Z,992.2
2018-05-13T06:35:13.853Z,992.2
2018-05-13T06:35:35.027Z,992.2
2018-05-13T06:36:00.420Z,992.2
2018-05-13T06:36:21.337Z,992.2
2018-05-13T06:36:42.829Z,992.2
2018-05-13T06:37:03.756Z,992.2
2018-05-13T06:37:24.430Z,992.1
2018-05-13T06:37:46.119Z,992.2
2018-05-13T06:38:06.996Z,992.2
2018-05-13T06:38:27.995Z,992.1
2018-05-13T06:38:51.434Z,992.2
2018-05-13T06:39:13.584Z,992.1
2018-05-13T06:39:34.790Z,992.1
2018-05-13T06:39:57.175Z,992.2
2018-05-13T06:40:18.126Z,992.2
2018-05-13T06:40:39.774Z,992.2
2018-05-13T06:41:00.701Z,992.2
2018-05-13T06:41:22.612Z,992.1
2018-05-13T06:41:43.358Z,992.1
2018-05-13T06:42:04.279Z,992.1
2018-05-13T06:42:35.561Z,992.2
2018-05-13T06:42:57.446Z,992.1
2018-05-13T06:43:18.430Z,992.2
2018-05-13T06:43:39.421Z,992.1
2018-05-13T06:44:00.514Z,992.1
2018-05-13T06:44:22.016Z,992.1
2018-05-13T06:44:43.005Z,992.1
2018-05-13T06:45:04.190Z,992.1
2018-05-13T06:45:25.129Z,992.1
2018-05-13T06:45:46.068Z,992.1
2018-05-13T06:46:10.815Z,992.1
2018-05-13T06:46:31.654Z,992.1
2018-05-13T06:46:52.490Z,992.1
2018-05-13T06:47:13.245Z,992.1
2018-05-13T06:47:34.173Z,992.1
2018-05-13T06:47:55.067Z,992.1
2018-05-13T06:48:15.878Z,992.1
2018-05-13T06:48:37.442Z,992.1
2018-05-13T06:48:58.262Z,992.1
2018-05-13T06:49:19.047Z,992.1
2018-05-13T06:49:40.221Z,992.1
2018-05-13T06:50:01.177Z,992
2018-05-13T06:50:22.288Z,992.1
2018-05-13T06:50:43.184Z,992
2018-05-13T06:51:04.137Z,992.1
2018-05-13T06:51:26.031Z,992.1
2018-05-13T06:51:47.010Z,992.1
2018-05-13T06:52:08.135Z,992.1
2018-05-13T06:52:29.587Z,992
2018-05-13T06:52:50.922Z,992
2018-05-13T06:53:15.484Z,992
2018-05-13T06:53:37.100Z,992
2018-05-13T06:53:58.027Z,992
2018-05-13T06:54:19.078Z,992
2018-05-13T06:54:42.151Z,992
2018-05-13T06:55:04.149Z,992
2018-05-13T06:55:25.868Z,992
2018-05-13T06:55:46.630Z,992
2018-05-13T06:56:08.825Z,992
2018-05-13T06:56:33.390Z,992
2018-05-13T06:56:56.503Z,992
2018-05-13T06:57:19.830Z,992
2018-05-13T06:57:41.031Z,992
2018-05-13T06:58:02.780Z,992
2018-05-13T06:58:23.854Z,992
2018-05-13T06:58:44.983Z,992
2018-05-13T06:59:06.080Z,992
2018-05-13T06:59:27.836Z,992
2018-05-13T06:59:48.663Z,991.9
2018-05-13T07:00:09.289Z,992
2018-05-13T07:00:30.335Z,992
2018-05-13T07:00:51.281Z,992
2018-05-13T07:01:11.933Z,992
2018-05-13T07:01:32.688Z,991.9
2018-05-13T07:01:54.511Z,992
2018-05-13T07:02:15.250Z,992
2018-05-13T07:02:36.230Z,992
2018-05-13T07:02:57.360Z,992
2018-05-13T07:03:18.938Z,992
2018-05-13T07:03:40.477Z,991.9
2018-05-13T07:04:01.330Z,992
2018-05-13T07:04:22.084Z,992
2018-05-13T07:04:43.345Z,992
2018-05-13T07:05:04.846Z,991.9
2018-05-13T07:05:26.024Z,991.9
2018-05-13T07:05:46.761Z,991.9
2018-05-13T07:06:08.585Z,991.9
2018-05-13T07:06:29.485Z,991.9
2018-05-13T07:06:50.403Z,991.9
2018-05-13T07:07:10.956Z,992
2018-05-13T07:07:32.110Z,991.9
2018-05-13T07:07:53.538Z,992
2018-05-13T07:08:14.964Z,991.9
2018-05-13T07:08:35.804Z,992
2018-05-13T07:08:56.542Z,991.9
2018-05-13T07:09:17.449Z,992
2018-05-13T07:09:38.082Z,991.9
2018-05-13T07:09:59.879Z,991.9
2018-05-13T07:10:20.750Z,992
2018-05-13T07:10:41.500Z,992
2018-05-13T07:11:02.146Z,991.9
2018-05-13T07:11:22.867Z,992
2018-05-13T07:11:44.363Z,992
2018-05-13T07:12:05.097Z,992
2018-05-13T07:12:25.900Z,992
2018-05-13T07:12:46.611Z,992
2018-05-13T07:13:07.857Z,992
2018-05-13T07:13:28.716Z,991.9
2018-05-13T07:13:49.673Z,991.9
2018-05-13T07:14:10.830Z,992
2018-05-13T07:14:32.085Z,992
2018-05-13T07:14:52.802Z,991.9
2018-05-13T07:15:13.472Z,991.9
2018-05-13T07:15:34.248Z,991.9
2018-05-13T07:15:55.582Z,991.9
2018-05-13T07:16:16.270Z,991.9
2018-05-13T07:16:36.890Z,991.9
2018-05-13T07:16:57.918Z,991.9
2018-05-13T07:17:18.591Z,991.9
2018-05-13T07:17:39.435Z,991.9
2018-05-13T07:18:00.278Z,991.9
2018-05-13T07:18:21.044Z,991.9
2018-05-13T07:18:42.141Z,991.8
2018-05-13T07:19:03.202Z,991.9
2018-05-13T07:19:24.697Z,991.9
2018-05-13T07:19:45.515Z,991.9
2018-05-13T07:20:06.340Z,991.9
2018-05-13T07:20:27.262Z,991.9
2018-05-13T07:20:48.939Z,991.9
2018-05-13T07:21:09.938Z,991.9
2018-05-13T07:21:31.459Z,991.9
2018-05-13T07:21:52.247Z,991.9
2018-05-13T07:22:13.820Z,991.8
2018-05-13T07:22:36.595Z,991.8
2018-05-13T07:22:57.341Z,991.9
2018-05-13T07:23:18.109Z,991.9
2018-05-13T07:23:39.592Z,991.8
2018-05-13T07:24:00.270Z,991.9
2018-05-13T07:24:21.193Z,991.8
2018-05-13T07:24:41.866Z,991.9
2018-05-13T07:25:02.497Z,991.8
2018-05-13T07:25:22.991Z,991.8
2018-05-13T07:25:43.692Z,991.8
2018-05-13T07:26:04.707Z,991.8
2018-05-13T07:26:25.452Z,991.8
2018-05-13T07:26:46.195Z,991.8
2018-05-13T07:27:08.184Z,991.8
2018-05-13T07:27:28.929Z,991.9
2018-05-13T07:27:49.952Z,991.9
2018-05-13T07:28:10.854Z,991.8
2018-05-13T07:28:31.615Z,991.9
2018-05-13T07:28:52.374Z,991.8
2018-05-13T07:29:13.174Z,991.8
2018-05-13T07:29:33.709Z,991.9
2018-05-13T07:29:56.098Z,991.9
2018-05-13T07:30:19.464Z,991.8
2018-05-13T07:30:40.435Z,991.8
2018-05-13T07:31:01.410Z,991.8
2018-05-13T07:31:22.470Z,991.8
2018-05-13T07:31:44.037Z,991.8
2018-05-13T07:32:04.696Z,991.8
2018-05-13T07:32:26.452Z,991.8
2018-05-13T07:32:47.097Z,991.8
2018-05-13T07:33:07.697Z,991.8
2018-05-13T07:33:28.264Z,991.8
2018-05-13T07:33:49.058Z,991.8
2018-05-13T07:34:09.873Z,991.8
2018-05-13T07:34:30.341Z,991.8
2018-05-13T07:34:51.212Z,991.8
2018-05-13T07:35:12.540Z,991.8
2018-05-13T07:35:33.899Z,991.8
2018-05-13T07:35:54.770Z,991.8
2018-05-13T07:36:15.492Z,991.8
2018-05-13T07:36:37.109Z,991.8
2018-05-13T07:36:58.505Z,991.8
2018-05-13T07:37:19.685Z,991.8
2018-05-13T07:37:40.969Z,991.8
2018-05-13T07:38:01.682Z,991.8
2018-05-13T07:38:22.791Z,991.8
2018-05-13T07:38:43.403Z,991.8
2018-05-13T07:39:04.135Z,991.8
2018-05-13T07:39:25.541Z,991.8
2018-05-13T07:39:46.054Z,991.8
2018-05-13T07:40:08.736Z,991.8
2018-05-13T07:40:29.440Z,991.8
2018-05-13T07:40:49.894Z,991.8
2018-05-13T07:41:10.961Z,991.8
2018-05-13T07:41:31.731Z,991.8
2018-05-13T07:41:52.526Z,991.8
2018-05-13T07:42:14.085Z,991.8
2018-05-13T07:42:35.387Z,991.8
2018-05-13T07:42:55.882Z,991.8
2018-05-13T07:43:16.399Z,991.8
2018-05-13T07:43:37.464Z,991.8
2018-05-13T07:43:59.259Z,991.8
2018-05-13T07:44:20.421Z,991.8
2018-05-13T07:44:41.469Z,991.8
2018-05-13T07:45:02.433Z,991.8
2018-05-13T07:45:23.105Z,991.8
2018-05-13T07:45:43.949Z,991.7
2018-05-13T07:46:04.833Z,991.7
2018-05-13T07:46:25.682Z,991.8
2018-05-13T07:46:46.459Z,991.8
2018-05-13T07:47:07.330Z,991.8
2018-05-13T07:47:27.976Z,991.8
2018-05-13T07:47:48.890Z,991.8
2018-05-13T07:48:09.527Z,991.8
2018-05-13T07:48:30.079Z,991.7
2018-05-13T07:48:51.399Z,991.8
2018-05-13T07:49:12.032Z,991.8
2018-05-13T07:49:32.967Z,991.7
2018-05-13T07:49:53.766Z,991.7
2018-05-13T07:50:14.524Z,991.7
2018-05-13T07:50:35.475Z,991.7
2018-05-13T07:50:56.912Z,991.7
2018-05-13T07:51:18.382Z,991.7
2018-05-13T07:51:40.936Z,991.6
2018-05-13T07:52:01.767Z,991.7
2018-05-13T07:52:22.342Z,991.7
2018-05-13T07:52:42.924Z,991.6
2018-05-13T07:53:03.640Z,991.7
2018-05-13T07:53:24.558Z,991.7
2018-05-13T07:53:45.134Z,991.7
2018-05-13T07:54:05.963Z,991.7
2018-05-13T07:54:26.926Z,991.7
2018-05-13T07:54:47.769Z,991.6
2018-05-13T07:55:08.702Z,991.7
2018-05-13T07:55:29.348Z,991.7
2018-05-13T07:55:49.951Z,991.6
2018-05-13T07:56:10.962Z,991.7
2018-05-13T07:56:31.518Z,991.6
2018-05-13T07:56:52.166Z,991.7
2018-05-13T07:57:13.551Z,991.6
2018-05-13T07:57:34.724Z,991.6
2018-05-13T07:57:56.737Z,991.6
2018-05-13T07:58:17.560Z,991.6
2018-05-13T07:58:38.311Z,991.6
2018-05-13T07:58:59.104Z,991.6
2018-05-13T07:59:19.752Z,991.6
2018-05-13T07:59:40.499Z,991.6
2018-05-13T08:00:00.999Z,991.6
2018-05-13T08:00:21.802Z,991.6
2018-05-13T08:00:42.570Z,991.6
2018-05-13T08:01:03.248Z,991.6
2018-05-13T08:01:23.724Z,991.6
2018-05-13T08:01:44.467Z,991.6
2018-05-13T08:02:05.009Z,991.6
2018-05-13T08:02:25.387Z,991.6
2018-05-13T08:02:46.206Z,991.6
2018-05-13T08:03:06.974Z,991.7
2018-05-13T08:03:27.837Z,991.6
2018-05-13T08:03:48.398Z,991.7
2018-05-13T08:04:09.226Z,991.6
2018-05-13T08:04:29.659Z,991.6
2018-05-13T08:04:50.222Z,991.6
2018-05-13T08:05:12.450Z,991.6
2018-05-13T08:05:33.041Z,991.6
2018-05-13T08:05:53.566Z,991.6
2018-05-13T08:06:14.360Z,991.7
2018-05-13T08:06:34.936Z,991.6
2018-05-13T08:06:56.496Z,991.6
2018-05-13T08:07:17.447Z,991.6
2018-05-13T08:07:38.356Z,991.6
2018-05-13T08:07:58.951Z,991.6
2018-05-13T08:08:19.701Z,991.6
2018-05-13T08:08:40.197Z,991.6
2018-05-13T08:09:00.991Z,991.6
2018-05-13T08:09:21.803Z,991.6
2018-05-13T08:09:42.262Z,991.6
2018-05-13T08:10:04.433Z,991.6
2018-05-13T08:10:25.913Z,991.6
2018-05-13T08:10:46.535Z,991.6
2018-05-13T08:11:07.245Z,991.6
2018-05-13T08:11:28.159Z,991.6
2018-05-13T08:11:49.045Z,991.6
2018-05-13T08:12:09.667Z,991.6
2018-05-13T08:12:30.512Z,991.6
2018-05-13T08:12:51.179Z,991.6
2018-05-13T08:13:11.579Z,991.6
2018-05-13T08:13:32.286Z,991.6
2018-05-13T08:13:53.068Z,991.6
2018-05-13T08:14:13.758Z,991.6
2018-05-13T08:14:34.239Z,991.6
2018-05-13T08:14:56.138Z,991.6
2018-05-13T08:15:16.910Z,991.6
2018-05-13T08:15:37.588Z,991.6
2018-05-13T08:15:58.470Z,991.6
2018-05-13T08:16:19.298Z,991.6
2018-05-13T08:16:39.980Z,991.6
2018-05-13T08:17:00.829Z,991.6
2018-05-13T08:17:22.042Z,991.6
2018-05-13T08:17:42.503Z,991.6
2018-05-13T08:18:02.973Z,991.6
2018-05-13T08:18:23.820Z,991.6
2018-05-13T08:18:44.417Z,991.6
2018-05-13T08:19:06.483Z,991.6
2018-05-13T08:19:27.160Z,991.6
2018-05-13T08:19:47.918Z,991.6
2018-05-13T08:20:09.782Z,991.5
2018-05-13T08:20:31.288Z,991.5
2018-05-13T08:20:52.250Z,991.5
2018-05-13T08:21:12.998Z,991.6
2018-05-13T08:21:34.301Z,991.5
2018-05-13T08:21:54.925Z,991.5
2018-05-13T08:22:15.704Z,991.6
2018-05-13T08:22:36.691Z,991.6
2018-05-13T08:22:57.272Z,991.5
2018-05-13T08:23:18.606Z,991.5
2018-05-13T08:23:39.172Z,991.6
2018-05-13T08:24:00.519Z,991.5
2018-05-13T08:24:21.248Z,991.5
2018-05-13T08:24:42.048Z,991.5
2018-05-13T08:25:03.196Z,991.5
2018-05-13T08:25:23.704Z,991.5
2018-05-13T08:25:45.240Z,991.5
2018-05-13T08:26:06.115Z,991.5
2018-05-13T08:26:26.712Z,991.5
2018-05-13T08:26:47.365Z,991.5
2018-05-13T08:27:08.663Z,991.5
2018-05-13T08:27:29.344Z,991.5
2018-05-13T08:27:50.139Z,991.6
2018-05-13T08:28:10.742Z,991.5
2018-05-13T08:28:31.687Z,991.5
2018-05-13T08:28:52.508Z,991.5
2018-05-13T08:29:15.063Z,991.5
2018-05-13T08:29:35.856Z,991.5
2018-05-13T08:29:56.155Z,991.5
2018-05-13T08:30:17.007Z,991.5
2018-05-13T08:30:37.780Z,991.5
2018-05-13T08:30:58.520Z,991.5
2018-05-13T08:31:19.941Z,991.5
2018-05-13T08:31:41.821Z,991.5
2018-05-13T08:32:02.503Z,991.5
2018-05-13T08:32:23.175Z,991.5
2018-05-13T08:32:43.926Z,991.5
2018-05-13T08:33:04.715Z,991.5
2018-05-13T08:33:25.962Z,991.5
2018-05-13T08:33:46.801Z,991.5
2018-05-13T08:34:08.153Z,991.4
2018-05-13T08:34:28.892Z,991.4
2018-05-13T08:34:50.660Z,991.5
2018-05-13T08:35:11.341Z,991.4
2018-05-13T08:35:32.037Z,991.5
2018-05-13T08:35:52.848Z,991.4
2018-05-13T08:36:13.541Z,991.5
2018-05-13T08:36:34.956Z,991.4
2018-05-13T08:36:55.696Z,991.5
2018-05-13T08:37:16.872Z,991.5
2018-05-13T08:37:37.650Z,991.5
2018-05-13T08:37:58.412Z,991.5
2018-05-13T08:38:19.550Z,991.4
2018-05-13T08:38:40.334Z,991.4
2018-05-13T08:39:01.316Z,991.4
2018-05-13T08:39:21.807Z,991.4
2018-05-13T08:39:42.649Z,991.4
2018-05-13T08:40:03.441Z,991.4
2018-05-13T08:40:24.414Z,991.4
2018-05-13T08:40:45.218Z,991.4
2018-05-13T08:41:06.153Z,991.4
2018-05-13T08:41:26.666Z,991.4
2018-05-13T08:41:47.805Z,991.4
2018-05-13T08:42:09.029Z,991.4
2018-05-13T08:42:29.714Z,991.3
2018-05-13T08:42:50.166Z,991.4
2018-05-13T08:43:11.607Z,991.4
2018-05-13T08:43:32.232Z,991.3
2018-05-13T08:43:52.903Z,991.3
2018-05-13T08:44:13.768Z,991.3
2018-05-13T08:44:35.033Z,991.3
2018-05-13T08:44:55.947Z,991.3
2018-05-13T08:45:17.137Z,991.3
2018-05-13T08:45:38.698Z,991.3
2018-05-13T08:45:59.350Z,991.3
2018-05-13T08:46:20.091Z,991.3
2018-05-13T08:46:40.804Z,991.3
2018-05-13T08:47:01.859Z,991.3
2018-05-13T08:47:22.775Z,991.4
2018-05-13T08:47:43.656Z,991.3
2018-05-13T08:48:04.455Z,991.4
2018-05-13T08:48:26.097Z,991.3
2018-05-13T08:48:47.606Z,991.3
2018-05-13T08:49:08.913Z,991.3
2018-05-13T08:49:30.596Z,991.3
2018-05-13T08:49:51.217Z,991.3
2018-05-13T08:50:13.010Z,991.4
2018-05-13T08:50:33.651Z,991.3
2018-05-13T08:50:54.596Z,991.3
2018-05-13T08:51:15.510Z,991.3
2018-05-13T08:51:37.213Z,991.3
2018-05-13T08:51:58.131Z,991.3
2018-05-13T08:52:18.967Z,991.3
2018-05-13T08:52:40.621Z,991.3
2018-05-13T08:53:01.728Z,991.3
2018-05-13T08:53:23.108Z,991.3
2018-05-13T08:53:43.941Z,991.3
2018-05-13T08:54:06.538Z,991.4
2018-05-13T08:54:28.786Z,991.3
2018-05-13T08:54:50.312Z,991.3
2018-05-13T08:55:11.269Z,991.3
2018-05-13T08:55:31.986Z,991.3
2018-05-13T08:55:53.556Z,991.3
2018-05-13T08:56:15.145Z,991.3
2018-05-13T08:56:36.587Z,991.3
2018-05-13T08:56:57.296Z,991.3
2018-05-13T08:57:19.974Z,991.3
2018-05-13T08:57:41.443Z,991.2
2018-05-13T08:58:02.369Z,991.2
2018-05-13T08:58:23.604Z,991.2
2018-05-13T08:58:44.689Z,991.2
2018-05-13T08:59:06.090Z,991.2
2018-05-13T08:59:26.738Z,991.2
2018-05-13T08:59:47.757Z,991.2
2018-05-13T09:00:08.677Z,991.2
2018-05-13T09:00:29.616Z,991.2
2018-05-13T09:00:51.709Z,991.2
2018-05-13T09:01:12.665Z,991.2
2018-05-13T09:01:34.465Z,991.2
2018-05-13T09:01:55.844Z,991.2
2018-05-13T09:02:16.719Z,991.2
2018-05-13T09:02:37.756Z,991.3
2018-05-13T09:02:58.733Z,991.2
2018-05-13T09:03:19.555Z,991.2
2018-05-13T09:03:40.543Z,991.2
2018-05-13T09:04:01.506Z,991.2
2018-05-13T09:04:22.951Z,991.3
2018-05-13T09:04:43.711Z,991.2
2018-05-13T09:05:05.051Z,991.2
2018-05-13T09:05:25.592Z,991.2
2018-05-13T09:05:46.611Z,991.2
2018-05-13T09:06:08.451Z,991.2
2018-05-13T09:06:29.967Z,991.2
2018-05-13T09:06:51.047Z,991.2
2018-05-13T09:07:11.925Z,991.2
2018-05-13T09:07:33.084Z,991.2
2018-05-13T09:07:54.034Z,991.3
2018-05-13T09:08:15.086Z,991.2
2018-05-13T09:08:36.687Z,991.2
2018-05-13T09:08:57.768Z,991.2
2018-05-13T09:09:19.101Z,991.2
2018-05-13T09:09:40.443Z,991.1
2018-05-13T09:10:01.222Z,991.1
2018-05-13T09:10:22.209Z,991.2
2018-05-13T09:10:43.086Z,991.2
2018-05-13T09:11:04.038Z,991.2
2018-05-13T09:11:25.297Z,991.2
2018-05-13T09:11:45.649Z,991.2
2018-05-13T09:12:06.735Z,991.2
2018-05-13T09:12:28.105Z,991.1
2018-05-13T09:12:50.101Z,991.2
2018-05-13T09:13:10.701Z,991.2
2018-05-13T09:13:33.697Z,991.2
2018-05-13T09:13:54.338Z,991.2
2018-05-13T09:14:15.667Z,991.2
2018-05-13T09:14:36.617Z,991.1
2018-05-13T09:14:58.739Z,991.2
2018-05-13T09:15:20.082Z,991.2
2018-05-13T09:15:42.422Z,991.2
2018-05-13T09:16:03.472Z,991.2
2018-05-13T09:16:25.089Z,991.2
2018-05-13T09:16:46.365Z,991.2
2018-05-13T09:17:07.848Z,991.1
2018-05-13T09:17:28.879Z,991.2
2018-05-13T09:17:50.274Z,991.2
2018-05-13T09:18:11.157Z,991.1
2018-05-13T09:18:51.392Z,991.1
2018-05-13T09:19:12.506Z,991.1
2018-05-13T09:19:33.158Z,991.1
2018-05-13T09:19:54.807Z,991.1
2018-05-13T09:20:16.193Z,991.1
2018-05-13T09:20:37.920Z,991.1
2018-05-13T09:20:59.313Z,991.1
2018-05-13T09:21:20.305Z,991.1
2018-05-13T09:21:41.392Z,991.1
2018-05-13T09:22:03.029Z,991.1
2018-05-13T09:22:24.014Z,991.1
2018-05-13T09:22:45.861Z,991.1
2018-05-13T09:23:06.770Z,991
2018-05-13T09:23:28.279Z,991
2018-05-13T09:23:49.415Z,991.1
2018-05-13T09:24:11.863Z,991
2018-05-13T09:24:33.776Z,991
2018-05-13T09:24:54.477Z,991.1
2018-05-13T09:25:15.458Z,991
2018-05-13T09:25:37.025Z,991
2018-05-13T09:25:58.221Z,991
2018-05-13T09:26:19.717Z,991
2018-05-13T09:26:41.173Z,991
2018-05-13T09:27:02.368Z,991
2018-05-13T09:27:23.345Z,991
2018-05-13T09:27:44.422Z,991
2018-05-13T09:28:06.209Z,991
2018-05-13T09:28:31.837Z,991
2018-05-13T09:28:53.505Z,991
2018-05-13T09:29:15.449Z,991
2018-05-13T09:29:36.673Z,991
2018-05-13T09:29:57.654Z,991
2018-05-13T09:30:18.651Z,991
2018-05-13T09:30:40.193Z,991
2018-05-13T09:31:03.427Z,990.9
2018-05-13T09:31:26.736Z,991
2018-05-13T09:31:51.096Z,990.9
2018-05-13T09:32:15.012Z,990.9
2018-05-13T09:32:35.866Z,990.9
2018-05-13T09:32:59.602Z,990.9
2018-05-13T09:33:20.424Z,990.9
2018-05-13T09:33:41.964Z,990.9
2018-05-13T09:34:02.895Z,990.9
2018-05-13T09:34:24.476Z,990.9
2018-05-13T09:34:46.033Z,990.9
2018-05-13T09:35:07.823Z,990.9
2018-05-13T09:35:28.869Z,991
2018-05-13T09:35:49.727Z,990.9
2018-05-13T09:36:11.173Z,990.9
2018-05-13T09:36:32.527Z,990.9
2018-05-13T09:36:54.286Z,990.9
2018-05-13T09:37:15.203Z,990.9
2018-05-13T09:37:35.899Z,990.9
2018-05-13T09:37:56.866Z,990.9
2018-05-13T09:38:17.535Z,990.9
2018-05-13T09:38:38.385Z,990.9
2018-05-13T09:38:59.182Z,990.9
2018-05-13T09:39:20.181Z,990.9